Midfield, Texas
Current Conditions -  °F | °C
As of 9:53 PM on Monday 20 Oct 2014 (Local Time) from KPSX Reporting Station
Clear Clear  
Wind Chill: 71°   Ceiling: Unl
Heat Index: 71°   Visibility: 10mi
Dew Point: 67°   Wind: 5mph
Humidity: 87%   Direction: 70°ENE
Pressure: 30.01"   Gusts: NA
Location:  28.94°N, 96.21°W
Report Text: KPSX 210253Z AUTO 07004KT 10SM CLR 22/19 A3001 RMK AO2 SLP161 T02170194 51014
Loading
Personal Weather Stations






























Interactive Weather Map
Tropical Storm Tracking
New forecast layout! Learn more

10-Day Weather Forecast

Advertisements
Track Severe Weather on mobile